Time;durP1;ratioP1;P1;durP2;ratioP2;P2;SDS_P1;SDS_P2;PMS_P1;PMS_P2;Temp;Humidity;BMP_temperature;BMP_pressure;BME280_temperature;BME280_humidity;BME280_pressure;Samples;Min_cycle;Max_cycle;Signal;HPM_P1;HPM_P2
2022/01/06 00:01:40;;;;;;;;;20.25;17.00;;;;;5.62;64.59;101622.75;5038746;28;45488;-49
2022/01/06 00:04:06;;;;;;;;;19.75;16.00;;;;;5.63;64.77;101626.25;5038146;28;45245;-45
2022/01/06 00:06:36;;;;;;;;;15.50;13.50;;;;;5.59;64.32;101625.56;5037902;28;45318;-52
2022/01/06 00:09:03;;;;;;;;;20.25;15.00;;;;;5.58;65.06;101621.25;5037865;28;45269;-45
2022/01/06 00:11:29;;;;;;;;;19.25;14.00;;;;;5.55;65.40;101613.50;5037661;28;45434;-45
2022/01/06 00:14:03;;;;;;;;;17.75;16.00;;;;;5.55;64.54;101616.16;5037881;28;45353;-45
2022/01/06 00:24:15;;;;;;;;;27.00;14.75;;;;;5.46;64.64;101616.72;5037914;28;45358;-47
2022/01/06 00:26:41;;;;;;;;;18.75;15.50;;;;;5.47;64.37;101616.59;5037493;28;46213;-45
2022/01/06 00:29:06;;;;;;;;;26.25;19.25;;;;;5.42;65.60;101618.69;5037460;28;45243;-46
2022/01/06 00:31:32;;;;;;;;;15.25;13.75;;;;;5.44;65.68;101618.59;5037611;28;45278;-45
2022/01/06 00:33:58;;;;;;;;;18.00;14.50;;;;;5.42;65.52;101621.31;5037719;28;45364;-44
2022/01/06 00:36:23;;;;;;;;;23.25;12.75;;;;;5.39;65.87;101624.13;5037395;28;45378;-46
2022/01/06 00:38:49;;;;;;;;;21.50;15.50;;;;;5.43;65.44;101630.06;5037666;28;45325;-45
2022/01/06 00:41:14;;;;;;;;;25.75;17.25;;;;;5.39;65.58;101628.56;5037613;28;45425;-44
2022/01/06 00:43:39;;;;;;;;;18.75;16.75;;;;;5.41;64.82;101634.59;5037658;28;45301;-51
2022/01/06 00:46:05;;;;;;;;;24.75;16.75;;;;;5.41;64.70;101638.09;5037210;28;45357;-44
2022/01/06 00:48:30;;;;;;;;;22.75;16.50;;;;;5.30;65.37;101627.31;5037144;28;45317;-45
2022/01/06 00:50:55;;;;;;;;;14.75;13.25;;;;;5.39;65.38;101639.13;5037361;28;45495;-45
2022/01/06 00:53:21;;;;;;;;;24.00;11.75;;;;;5.19;64.90;101608.66;5037465;28;45425;-49
2022/01/06 00:55:46;;;;;;;;;25.00;20.25;;;;;5.36;64.80;101636.69;5036877;28;45941;-46
2022/01/06 00:58:12;;;;;;;;;18.00;13.50;;;;;5.33;65.13;101634.22;5036926;28;45369;-45
2022/01/06 01:00:41;;;;;;;;;20.50;18.00;;;;;5.31;65.40;101644.00;5037181;28;46124;-44
2022/01/06 01:03:06;;;;;;;;;21.50;16.50;;;;;5.28;64.95;101645.03;5037285;28;45364;-45
2022/01/06 01:05:32;;;;;;;;;28.50;18.00;;;;;5.26;65.17;101644.28;5036519;28;46323;-49
2022/01/06 01:07:57;;;;;;;;;21.00;14.25;;;;;5.24;65.95;101647.00;5036723;28;45293;-45
2022/01/06 01:10:23;;;;;;;;;23.25;18.75;;;;;5.22;65.96;101648.91;5035784;28;45733;-44
2022/01/06 01:12:49;;;;;;;;;19.75;14.75;;;;;5.20;65.88;101648.13;5037125;28;45380;-45
2022/01/06 01:15:24;;;;;;;;;18.25;14.00;;;;;5.09;66.04;101636.50;5036615;28;45362;-44
2022/01/06 01:17:51;;;;;;;;;18.00;13.50;;;;;5.15;65.82;101639.63;5036180;28;45335;-43
2022/01/06 01:20:18;;;;;;;;;18.25;15.75;;;;;5.15;65.83;101638.78;5036469;28;45337;-45
2022/01/06 01:22:45;;;;;;;;;17.75;15.00;;;;;4.99;65.27;101615.09;5036894;28;45370;-45
2022/01/06 01:25:11;;;;;;;;;17.50;14.00;;;;;5.13;65.58;101644.13;5036477;28;46324;-43
2022/01/06 01:27:41;;;;;;;;;16.00;14.50;;;;;5.04;66.05;101630.66;5036492;28;45313;-46
2022/01/06 01:30:11;;;;;;;;;20.25;15.00;;;;;5.11;66.12;101648.66;5036448;28;45275;-46
2022/01/06 01:32:38;;;;;;;;;19.75;16.50;;;;;5.11;66.59;101643.41;5036646;28;45258;-44
2022/01/06 01:35:07;;;;;;;;;14.50;11.75;;;;;5.10;66.26;101646.97;5036241;28;46511;-42
2022/01/06 01:37:34;;;;;;;;;18.25;14.50;;;;;5.09;66.55;101652.31;5018750;28;45432;-47
2022/01/06 01:40:00;;;;;;;;;18.25;17.50;;;;;5.08;65.92;101648.84;5036633;28;45329;-43
2022/01/06 01:42:26;;;;;;;;;19.75;16.50;;;;;5.07;66.46;101656.84;5036702;28;45309;-43
2022/01/06 01:44:52;;;;;;;;;7.75;7.75;;;;;5.07;66.01;101655.06;5036299;28;46302;-44
2022/01/06 01:47:39;;;;;;;;;23.50;16.75;;;;;5.04;66.75;101657.88;5036456;28;45418;-45
2022/01/06 01:50:13;;;;;;;;;18.75;16.00;;;;;5.05;66.43;101654.28;5036283;28;45363;-44
2022/01/06 01:52:44;;;;;;;;;19.75;14.50;;;;;5.01;66.28;101660.66;5036599;28;45210;-44
2022/01/06 01:55:11;;;;;;;;;18.00;13.50;;;;;5.05;66.08;101656.06;5036061;28;46185;-46
2022/01/06 01:57:37;;;;;;;;;21.75;18.25;;;;;4.91;66.27;101638.41;5036274;28;45359;-44
2022/01/06 02:00:11;;;;;;;;;17.50;16.25;;;;;5.01;66.25;101668.59;5036188;28;45468;-44
2022/01/06 02:02:37;;;;;;;;;15.50;13.00;;;;;4.98;66.38;101666.16;5036257;28;45410;-51
2022/01/06 02:05:03;;;;;;;;;22.50;19.00;;;;;4.95;66.54;101664.53;5035806;28;47095;-48
2022/01/06 02:07:28;;;;;;;;;23.50;16.50;;;;;4.98;67.70;101669.63;5036112;28;45306;-53
2022/01/06 02:09:54;;;;;;;;;26.25;16.00;;;;;4.99;66.93;101670.47;5036043;28;45350;-45
2022/01/06 02:12:24;;;;;;;;;12.50;8.75;;;;;4.97;67.22;101669.69;5036389;28;45382;-45
2022/01/06 02:14:49;;;;;;;;;24.75;15.25;;;;;4.86;66.47;101664.22;5036053;28;46617;-45
2022/01/06 02:17:15;;;;;;;;;19.00;13.75;;;;;4.97;66.76;101675.84;5035949;28;45336;-44
2022/01/06 02:19:44;;;;;;;;;21.00;14.00;;;;;4.97;67.25;101678.47;5035695;28;45663;-45
2022/01/06 02:22:09;;;;;;;;;14.25;12.50;;;;;4.97;66.61;101674.97;5038577;28;45318;-44
2022/01/06 02:24:34;;;;;;;;;13.75;11.75;;;;;4.97;66.75;101672.34;5037905;28;47393;-44
2022/01/06 02:27:00;;;;;;;;;20.25;17.25;;;;;4.96;67.31;101666.22;5039026;28;45344;-47
2022/01/06 02:29:26;;;;;;;;;18.00;12.50;;;;;4.95;67.10;101672.44;5039408;28;45294;-44
2022/01/06 02:31:52;;;;;;;;;19.50;16.50;;;;;4.81;66.42;101655.72;5039341;28;45309;-45
2022/01/06 02:34:17;;;;;;;;;21.00;17.50;;;;;4.95;67.08;101682.13;5039024;28;46475;-45
2022/01/06 02:36:43;;;;;;;;;22.75;18.25;;;;;4.94;66.65;101677.81;5039004;28;45369;-50
2022/01/06 02:39:09;;;;;;;;;18.25;16.50;;;;;4.93;66.73;101673.44;5039056;28;45382;-52
2022/01/06 02:41:34;;;;;;;;;15.00;14.25;;;;;4.91;67.39;101672.69;5039402;28;45378;-52
2022/01/06 02:44:00;;;;;;;;;18.25;15.50;;;;;4.93;67.26;101674.31;5038823;28;47181;-52
2022/01/06 02:46:26;;;;;;;;;23.75;20.50;;;;;4.89;67.23;101680.72;5038877;28;45337;-51
2022/01/06 02:48:51;;;;;;;;;11.00;11.00;;;;;4.91;66.28;101670.06;5038929;28;45360;-50
2022/01/06 02:51:16;;;;;;;;;14.50;14.00;;;;;4.87;66.98;101673.81;5039117;28;45277;-49
2022/01/06 02:53:42;;;;;;;;;20.25;12.00;;;;;4.86;66.55;101675.59;5039119;28;45578;-45
2022/01/06 02:56:07;;;;;;;;;20.75;17.25;;;;;4.78;66.61;101663.78;5038888;28;45189;-47
2022/01/06 02:58:32;;;;;;;;;19.50;13.00;;;;;4.84;66.84;101680.09;5039034;28;45236;-46
2022/01/06 03:00:58;;;;;;;;;19.25;14.75;;;;;4.80;67.30;101673.28;5039057;28;45275;-49
2022/01/06 03:03:23;;;;;;;;;18.25;13.00;;;;;4.81;67.26;101687.34;5038498;28;45974;-51
2022/01/06 03:05:48;;;;;;;;;19.75;15.25;;;;;4.80;66.89;101699.66;5038590;28;45414;-45
2022/01/06 03:08:14;;;;;;;;;19.75;14.00;;;;;4.77;66.67;101707.75;5038946;28;45535;-52
2022/01/06 03:10:43;;;;;;;;;14.25;11.00;;;;;4.75;67.40;101697.28;5039112;28;45401;-52
2022/01/06 03:13:09;;;;;;;;;14.25;11.75;;;;;4.79;67.10;101705.03;5040151;28;46342;-52
2022/01/06 03:15:34;;;;;;;;;14.25;11.00;;;;;4.74;67.18;101698.22;5039628;28;45369;-53
2022/01/06 03:18:00;;;;;;;;;17.00;13.75;;;;;4.77;66.84;101709.53;5040224;28;45233;-52
2022/01/06 03:20:27;;;;;;;;;16.25;13.25;;;;;4.80;66.76;101712.00;5038710;28;45303;-53
2022/01/06 03:22:54;;;;;;;;;13.00;10.25;;;;;4.84;66.82;101708.25;5038303;28;45973;-50
2022/01/06 03:25:20;;;;;;;;;11.00;11.00;;;;;4.91;66.43;101706.97;5038259;28;45280;-53
2022/01/06 03:27:46;;;;;;;;;13.75;11.25;;;;;4.94;66.33;101705.00;5038400;28;45364;-53
2022/01/06 03:30:17;;;;;;;;;15.25;12.00;;;;;5.00;66.11;101714.34;5038709;28;45409;-51
2022/01/06 03:32:43;;;;;;;;;27.00;13.00;;;;;5.05;66.18;101719.38;5037273;28;46112;-53
2022/01/06 03:35:12;;;;;;;;;16.25;12.50;;;;;5.08;66.23;101713.94;5038051;28;45330;-52
2022/01/06 03:37:39;;;;;;;;;20.25;9.50;;;;;5.12;65.77;101718.94;5038226;28;45571;-47
2022/01/06 03:40:05;;;;;;;;;12.25;11.75;;;;;5.14;65.74;101716.19;5038260;28;45478;-47
2022/01/06 03:42:35;;;;;;;;;13.25;12.75;;;;;5.15;65.64;101713.50;5037223;28;48213;-51
2022/01/06 03:45:02;;;;;;;;;16.25;10.00;;;;;5.13;65.72;101709.22;5037971;28;45243;-49
2022/01/06 03:47:27;;;;;;;;;10.75;9.50;;;;;5.17;65.98;101722.16;5038039;28;45368;-45
2022/01/06 03:49:53;;;;;;;;;19.75;12.50;;;;;5.17;66.05;101719.50;5038225;28;45306;-53
2022/01/06 03:52:18;;;;;;;;;12.50;9.50;;;;;5.16;66.49;101706.44;5037896;28;45338;-45
2022/01/06 03:54:43;;;;;;;;;12.00;9.50;;;;;5.15;65.49;101718.78;5037739;28;45424;-51
2022/01/06 03:57:09;;;;;;;;;16.00;11.50;;;;;5.16;66.31;101720.47;5038144;28;45452;-47
2022/01/06 03:59:35;;;;;;;;;13.00;7.75;;;;;5.17;65.76;101718.66;5038195;28;45339;-53
2022/01/06 04:02:01;;;;;;;;;15.75;11.25;;;;;5.19;65.69;101730.84;5037223;28;45358;-49
2022/01/06 04:04:27;;;;;;;;;10.50;10.50;;;;;5.20;66.33;101726.41;5037583;28;45349;-51
2022/01/06 04:06:52;;;;;;;;;16.75;12.50;;;;;5.15;65.67;101710.84;5037557;28;45231;-50
2022/01/06 04:09:18;;;;;;;;;12.50;8.00;;;;;5.18;66.26;101723.88;5036692;28;45428;-48
2022/01/06 04:11:43;;;;;;;;;14.25;13.00;;;;;5.19;66.18;101719.44;5037330;28;45994;-49
2022/01/06 04:14:08;;;;;;;;;17.00;11.00;;;;;5.19;65.87;101728.22;5037668;28;45305;-52
2022/01/06 04:16:36;;;;;;;;;23.25;14.75;;;;;5.19;65.63;101730.84;5037689;28;45473;-54
2022/01/06 04:19:02;;;;;;;;;14.50;13.50;;;;;5.18;65.94;101728.28;5037607;28;45330;-50
2022/01/06 04:21:28;;;;;;;;;14.50;13.50;;;;;5.13;65.95;101718.00;5037227;28;47275;-52
2022/01/06 04:23:53;;;;;;;;;7.50;6.75;;;;;5.15;65.54;101721.41;5037268;28;45420;-47
2022/01/06 04:26:19;;;;;;;;;16.00;14.75;;;;;5.19;65.94;101719.44;5037597;28;45342;-52
2022/01/06 04:28:44;;;;;;;;;17.25;11.75;;;;;5.21;65.27;101722.84;5037764;28;45367;-53
2022/01/06 04:31:10;;;;;;;;;12.50;9.00;;;;;5.20;65.81;101721.97;5037094;28;46292;-48
2022/01/06 04:33:36;;;;;;;;;15.75;11.00;;;;;5.19;65.97;101730.84;5037501;28;45841;-51
2022/01/06 04:36:03;;;;;;;;;14.50;11.25;;;;;5.20;65.80;101726.41;5037198;28;45238;-51
2022/01/06 04:38:28;;;;;;;;;10.00;10.00;;;;;5.07;65.68;101704.31;5036768;28;45159;-49
2022/01/06 04:40:53;;;;;;;;;21.50;13.25;;;;;5.19;65.96;101725.56;5037154;28;45300;-50
2022/01/06 04:43:19;;;;;;;;;13.25;10.75;;;;;5.19;65.13;101728.22;5037039;28;45354;-49
2022/01/06 04:45:45;;;;;;;;;17.00;10.50;;;;;5.13;65.69;101725.06;5037269;28;45251;-45
2022/01/06 04:48:11;;;;;;;;;12.00;10.75;;;;;5.13;65.48;101727.69;5037513;28;45283;-44
2022/01/06 04:50:36;;;;;;;;;13.00;9.75;;;;;5.08;66.23;101727.97;5036969;28;45961;-47
2022/01/06 04:53:01;;;;;;;;;14.00;11.00;;;;;5.03;65.80;101739.72;5037040;28;45393;-52
2022/01/06 04:55:27;;;;;;;;;18.50;12.00;;;;;4.89;66.37;101719.41;5037244;28;45366;-47
2022/01/06 04:57:52;;;;;;;;;9.75;9.75;;;;;4.93;66.78;101734.09;5037209;28;45400;-49
2022/01/06 05:00:18;;;;;;;;;11.00;10.75;;;;;4.88;66.92;101731.72;5036797;28;46257;-46
2022/01/06 05:02:43;;;;;;;;;17.50;12.00;;;;;4.85;66.97;101747.72;5036820;28;45389;-44
2022/01/06 05:05:09;;;;;;;;;13.50;10.50;;;;;4.83;67.06;101744.31;5037093;28;45444;-46
2022/01/06 05:07:34;;;;;;;;;13.75;10.50;;;;;4.80;66.64;101746.25;5036951;28;45374;-46
2022/01/06 05:09:59;;;;;;;;;16.50;13.50;;;;;4.77;67.17;101749.94;5036813;28;46125;-44
2022/01/06 05:12:25;;;;;;;;;14.25;11.00;;;;;4.70;67.00;101738.00;5036765;28;45381;-46
2022/01/06 05:14:50;;;;;;;;;10.75;10.00;;;;;4.73;66.68;101759.78;5036813;28;45377;-44
2022/01/06 05:17:15;;;;;;;;;12.25;11.25;;;;;4.71;67.07;101755.53;5037006;28;45351;-46
2022/01/06 05:19:41;;;;;;;;;16.25;13.00;;;;;4.69;67.75;101757.41;5035633;28;45305;-44
2022/01/06 05:22:06;;;;;;;;;17.25;12.50;;;;;4.70;66.87;101764.38;5036737;28;45325;-50
2022/01/06 05:24:33;;;;;;;;;11.75;10.75;;;;;4.62;66.91;101748.97;5036698;28;45575;-48
2022/01/06 05:26:58;;;;;;;;;14.00;11.50;;;;;4.57;67.29;101737.84;5036777;28;45452;-43
2022/01/06 05:29:24;;;;;;;;;17.00;10.50;;;;;4.55;67.42;101745.00;5036565;28;46142;-45
2022/01/06 05:31:49;;;;;;;;;13.75;11.50;;;;;4.64;67.71;101760.28;5036469;28;45461;-44
2022/01/06 05:34:15;;;;;;;;;16.75;11.00;;;;;4.62;67.41;101764.78;5036849;28;45263;-46
2022/01/06 05:36:41;;;;;;;;;14.50;12.00;;;;;4.63;67.52;101766.47;5036660;28;45318;-49
2022/01/06 05:39:07;;;;;;;;;13.00;9.00;;;;;4.61;67.23;101765.72;5036395;28;46152;-48
2022/01/06 05:41:32;;;;;;;;;14.00;11.25;;;;;4.62;68.05;101766.56;5036430;28;45385;-45
2022/01/06 05:43:59;;;;;;;;;12.50;9.75;;;;;4.48;67.50;101746.25;5036249;28;45404;-46
2022/01/06 05:46:24;;;;;;;;;11.75;10.25;;;;;4.61;67.84;101768.34;5036763;28;45339;-48
2022/01/06 05:48:50;;;;;;;;;16.00;12.00;;;;;4.61;68.07;101770.16;5036096;28;46104;-45
2022/01/06 05:51:15;;;;;;;;;16.75;10.50;;;;;4.60;68.05;101771.09;5036204;28;45487;-44
2022/01/06 05:53:41;;;;;;;;;12.25;11.00;;;;;4.62;68.24;101774.47;5036367;28;45485;-50
2022/01/06 05:56:07;;;;;;;;;14.25;11.50;;;;;4.64;67.67;101778.75;5037428;28;45393;-44
2022/01/06 05:58:32;;;;;;;;;14.00;9.00;;;;;4.65;67.91;101777.81;5039755;28;46080;-50
2022/01/06 06:00:58;;;;;;;;;11.25;10.50;;;;;4.65;68.27;101777.81;5039696;28;45188;-45
2022/01/06 06:03:27;;;;;;;;;12.00;12.00;;;;;4.64;67.60;101777.91;5039724;28;45364;-47
2022/01/06 06:05:53;;;;;;;;;18.25;12.50;;;;;4.67;67.43;101773.28;5040073;28;45509;-48
2022/01/06 06:08:19;;;;;;;;;11.25;11.25;;;;;4.69;67.72;101778.50;5039218;28;45301;-46
2022/01/06 06:10:44;;;;;;;;;13.50;11.50;;;;;4.75;68.29;101784.25;5039642;28;45422;-46
2022/01/06 06:13:09;;;;;;;;;12.00;11.50;;;;;4.71;67.78;101773.97;5039561;28;45369;-48
2022/01/06 06:15:35;;;;;;;;;16.00;12.00;;;;;4.85;67.70;101792.53;5039745;28;45347;-48
2022/01/06 06:18:02;;;;;;;;;16.00;9.75;;;;;4.90;67.64;101802.84;5039475;28;46170;-45
2022/01/06 06:20:28;;;;;;;;;15.25;10.25;;;;;4.94;67.54;101802.56;5039343;28;45185;-47
2022/01/06 06:22:53;;;;;;;;;15.25;11.00;;;;;4.94;67.74;101794.66;5039156;28;45416;-45
2022/01/06 06:25:19;;;;;;;;;10.50;10.50;;;;;5.05;67.27;101803.75;5039343;28;45363;-45
2022/01/06 06:27:44;;;;;;;;;15.50;11.00;;;;;5.10;66.96;101806.97;5039171;28;45968;-45
2022/01/06 06:30:10;;;;;;;;;11.00;9.25;;;;;5.14;68.06;101814.66;5039207;28;45214;-47
2022/01/06 06:32:35;;;;;;;;;14.00;11.00;;;;;5.09;66.45;101795.59;5039274;28;45441;-45
2022/01/06 06:35:03;;;;;;;;;15.75;11.00;;;;;5.17;66.61;101805.72;5039336;28;45207;-44
2022/01/06 06:37:28;;;;;;;;;11.00;7.50;;;;;5.10;66.26;101789.41;5039067;28;46456;-45
2022/01/06 06:39:54;;;;;;;;;11.00;7.00;;;;;5.27;66.24;101817.47;5038907;28;45275;-46
2022/01/06 06:42:19;;;;;;;;;11.00;11.00;;;;;5.28;65.72;101826.22;5039193;28;45377;-44
2022/01/06 06:44:45;;;;;;;;;12.75;10.00;;;;;5.31;66.41;101829.56;5039320;28;45374;-44
2022/01/06 06:47:10;;;;;;;;;9.75;8.00;;;;;5.32;65.57;101817.22;5038766;28;45388;-46
2022/01/06 06:49:37;;;;;;;;;17.00;12.25;;;;;5.37;65.53;101823.91;5039109;28;45384;-47
2022/01/06 06:52:03;;;;;;;;;14.50;11.75;;;;;5.37;66.00;101825.72;5039018;28;45429;-42
2022/01/06 06:54:29;;;;;;;;;19.50;10.75;;;;;5.38;66.28;101819.50;5038954;28;45361;-46
2022/01/06 06:56:55;;;;;;;;;15.00;14.00;;;;;5.38;66.11;101825.59;5038596;28;46213;-45
2022/01/06 06:59:20;;;;;;;;;14.75;11.00;;;;;5.38;65.36;101822.13;5038874;28;45366;-44
2022/01/06 07:01:46;;;;;;;;;15.50;12.00;;;;;5.37;65.89;101823.91;5039048;28;45291;-51
2022/01/06 07:04:11;;;;;;;;;14.50;12.75;;;;;5.35;65.03;101824.94;5039033;28;45247;-47
2022/01/06 07:06:36;;;;;;;;;12.00;11.50;;;;;5.38;65.75;101828.25;5038806;28;46173;-44
2022/01/06 07:09:02;;;;;;;;;17.00;14.50;;;;;5.39;65.46;101837.84;5037339;28;45326;-43
2022/01/06 07:11:28;;;;;;;;;12.50;10.50;;;;;5.40;65.32;101829.03;5038758;28;45368;-44
2022/01/06 07:13:53;;;;;;;;;16.75;12.00;;;;;5.43;65.96;101835.91;5038906;28;45394;-44
2022/01/06 07:16:18;;;;;;;;;15.75;13.00;;;;;5.44;65.60;101829.72;5038525;28;46351;-49
2022/01/06 07:18:44;;;;;;;;;13.75;10.75;;;;;5.39;65.48;101824.66;5038575;28;45382;-47
2022/01/06 07:21:09;;;;;;;;;20.50;11.75;;;;;5.46;65.59;101835.75;5038420;28;45337;-52
2022/01/06 07:23:35;;;;;;;;;14.75;11.00;;;;;5.46;66.08;101833.94;5038619;28;45407;-52
2022/01/06 07:26:00;;;;;;;;;15.75;13.25;;;;;5.46;65.91;101825.19;5038402;28;46016;-48
2022/01/06 07:28:25;;;;;;;;;15.50;10.25;;;;;5.49;65.24;101831.13;5020645;28;45349;-48
2022/01/06 07:30:51;;;;;;;;;17.75;13.00;;;;;5.48;65.34;101834.72;5038485;28;45308;-53
2022/01/06 07:33:16;;;;;;;;;19.25;15.00;;;;;5.52;65.73;101840.69;5038975;28;45414;-50
2022/01/06 07:35:41;;;;;;;;;10.75;8.50;;;;;5.52;65.28;101832.75;5041590;28;46150;-48
2022/01/06 07:38:07;;;;;;;;;16.75;12.00;;;;;5.56;65.37;101842.19;5041136;28;45206;-52
2022/01/06 07:40:32;;;;;;;;;23.00;13.00;;;;;5.57;65.10;101843.06;5040853;28;45359;-52
2022/01/06 07:42:58;;;;;;;;;20.00;11.50;;;;;5.55;65.60;101842.28;5042350;28;45325;-53
2022/01/06 07:45:23;;;;;;;;;17.75;12.50;;;;;5.60;65.21;101848.13;5038678;28;47252;-48
2022/01/06 07:47:57;;;;;;;;;16.25;11.50;;;;;5.58;65.47;101842.97;5041041;28;45285;-52
2022/01/06 07:50:33;;;;;;;;;11.50;11.00;;;;;5.50;65.59;101837.25;5042187;28;45459;-52
2022/01/06 07:52:59;;;;;;;;;19.75;13.25;;;;;5.63;65.19;101859.38;5041858;28;45457;-48
2022/01/06 07:55:25;;;;;;;;;15.00;13.75;;;;;5.64;65.61;101861.06;5038884;28;46316;-50
2022/01/06 07:57:51;;;;;;;;;14.00;12.25;;;;;5.67;65.66;101863.53;5037520;28;45357;-49
2022/01/06 08:00:18;;;;;;;;;17.00;14.00;;;;;5.66;65.08;101853.94;5037217;28;45519;-54
2022/01/06 08:02:45;;;;;;;;;14.75;12.25;;;;;5.72;65.08;101861.50;5037530;28;45410;-49
2022/01/06 08:05:13;;;;;;;;;14.00;13.00;;;;;5.75;65.21;101860.47;5036945;28;46517;-49
2022/01/06 08:07:39;;;;;;;;;15.75;14.00;;;;;5.76;65.33;101855.09;5036621;28;45253;-53
2022/01/06 08:10:06;;;;;;;;;12.25;12.00;;;;;5.80;64.67;101854.91;5036688;28;45316;-52
2022/01/06 08:12:31;;;;;;;;;16.00;13.75;;;;;5.82;64.75;101850.44;5037271;28;45361;-51
2022/01/06 08:14:57;;;;;;;;;14.00;12.25;;;;;5.86;65.05;101852.78;5036581;28;46050;-43
2022/01/06 08:17:22;;;;;;;;;17.50;13.75;;;;;5.89;64.86;101852.59;5037111;28;45433;-51
2022/01/06 08:19:48;;;;;;;;;18.50;14.75;;;;;5.91;64.65;101849.88;5036326;28;45385;-47
2022/01/06 08:22:13;;;;;;;;;19.00;12.25;;;;;5.96;64.65;101858.41;5037237;28;45455;-46
2022/01/06 08:24:39;;;;;;;;;17.50;14.50;;;;;5.99;64.48;101850.31;5036734;28;45587;-46
2022/01/06 08:27:08;;;;;;;;;20.25;18.75;;;;;6.04;64.66;101852.69;5037530;28;45433;-53
2022/01/06 08:29:35;;;;;;;;;4.75;1.75;;;;;6.08;64.37;101864.78;5038130;28;45430;-50
2022/01/06 08:32:01;;;;;;;;;13.00;11.50;;;;;6.11;64.17;101860.16;5038603;28;45480;-50
2022/01/06 08:34:27;;;;;;;;;11.50;10.25;;;;;6.15;64.21;101863.44;5035934;28;45532;-50
2022/01/06 08:36:53;;;;;;;;;20.00;17.25;;;;;6.17;64.24;101866.88;5036416;28;45373;-51
2022/01/06 08:39:19;;;;;;;;;20.75;17.50;;;;;6.18;63.70;101865.91;5036269;28;45480;-52
2022/01/06 08:41:45;;;;;;;;;22.00;17.00;;;;;6.24;63.70;101871.72;5036344;28;45776;-52
2022/01/06 08:44:10;;;;;;;;;20.75;15.50;;;;;6.28;63.96;101871.50;5035989;28;46669;-45
2022/01/06 08:46:35;;;;;;;;;22.50;14.50;;;;;6.29;63.38;101874.06;5036300;28;45291;-49
2022/01/06 08:49:02;;;;;;;;;15.25;15.00;;;;;6.29;63.63;101866.16;5036056;28;45306;-53
2022/01/06 08:51:28;;;;;;;;;19.75;16.00;;;;;6.34;63.48;101879.09;5036420;28;45519;-49
2022/01/06 08:53:53;;;;;;;;;21.00;14.00;;;;;6.36;63.51;101878.06;5035790;28;45402;-46
2022/01/06 08:56:19;;;;;;;;;17.50;14.75;;;;;6.41;63.29;101883.06;5035818;28;45586;-46
2022/01/06 08:58:45;;;;;;;;;15.25;12.75;;;;;6.41;62.98;101883.91;5036288;28;45435;-45
2022/01/06 09:01:11;;;;;;;;;28.50;20.25;;;;;6.46;62.96;101881.00;5036219;28;45226;-43
2022/01/06 09:03:37;;;;;;;;;12.00;11.00;;;;;6.51;63.01;101886.84;5035367;28;45477;-48
2022/01/06 09:06:02;;;;;;;;;15.50;9.50;;;;;6.43;62.92;101862.66;5035718;28;45478;-50
2022/01/06 09:08:28;;;;;;;;;18.25;16.00;;;;;6.54;62.94;101877.88;5036187;28;45481;-52
2022/01/06 09:10:53;;;;;;;;;28.50;20.25;;;;;6.56;62.61;101866.25;5036397;28;45460;-50
2022/01/06 09:13:18;;;;;;;;;15.75;13.50;;;;;6.66;62.57;101880.63;5036107;28;46359;-45
2022/01/06 09:15:44;;;;;;;;;26.00;19.00;;;;;6.72;62.54;101884.69;5035649;28;45496;-53
2022/01/06 09:18:09;;;;;;;;;22.75;15.00;;;;;6.77;62.24;101879.13;5036478;28;45374;-50
2022/01/06 09:20:34;;;;;;;;;18.75;14.50;;;;;6.79;61.99;101880.75;5035866;28;45440;-44
2022/01/06 09:23:00;;;;;;;;;21.25;18.25;;;;;6.88;61.75;101889.91;5035857;28;45580;-45
2022/01/06 09:25:26;;;;;;;;;18.75;15.00;;;;;6.91;61.71;101887.91;5035713;28;45287;-47
2022/01/06 09:27:51;;;;;;;;;21.00;15.25;;;;;6.95;61.47;101891.19;5035773;28;45304;-45
2022/01/06 09:30:18;;;;;;;;;18.50;16.00;;;;;7.05;61.68;101886.19;5036091;28;45366;-44
2022/01/06 09:32:43;;;;;;;;;20.00;15.75;;;;;7.12;61.12;101891.03;5038982;28;46109;-45
2022/01/06 09:35:09;;;;;;;;;12.00;9.75;;;;;7.15;61.19;101882.03;5039204;28;45400;-46
2022/01/06 09:37:35;;;;;;;;;14.75;11.25;;;;;7.27;60.07;101891.84;5039151;28;45351;-46
2022/01/06 09:40:01;;;;;;;;;17.25;15.50;;;;;7.35;60.10;101897.50;5039178;28;45458;-45
2022/01/06 09:42:26;;;;;;;;;16.75;12.25;;;;;7.39;60.19;101899.00;5039065;28;46392;-45
2022/01/06 09:44:53;;;;;;;;;19.25;13.50;;;;;7.42;59.80;101901.47;5038901;28;45343;-44
2022/01/06 09:47:19;;;;;;;;;22.00;16.50;;;;;7.38;60.33;101878.78;5038936;28;45454;-46
2022/01/06 09:49:45;;;;;;;;;14.50;11.50;;;;;7.55;58.89;101912.13;5039038;28;45479;-45
2022/01/06 09:52:12;;;;;;;;;15.00;13.00;;;;;7.59;59.42;101908.31;5038988;28;45374;-46
2022/01/06 09:54:39;;;;;;;;;16.50;14.00;;;;;7.64;59.48;101911.53;5038653;28;45584;-46
2022/01/06 09:57:06;;;;;;;;;16.00;16.00;;;;;7.67;58.76;101913.97;5038716;28;45386;-46
2022/01/06 09:59:31;;;;;;;;;15.25;12.75;;;;;7.67;58.91;101918.44;5039211;28;45374;-46
2022/01/06 10:01:58;;;;;;;;;15.25;14.50;;;;;7.64;58.57;101903.56;5020573;28;47164;-45
2022/01/06 10:04:28;;;;;;;;;23.00;14.00;;;;;7.67;58.60;101915.78;5038400;28;45289;-47
2022/01/06 10:07:05;;;;;;;;;18.75;13.00;;;;;7.70;58.50;101919.06;5039050;28;45384;-47
2022/01/06 10:09:34;;;;;;;;;13.75;13.50;;;;;7.71;58.76;101918.13;5038930;28;45381;-47
2022/01/06 10:12:03;;;;;;;;;21.50;14.25;;;;;7.72;58.62;101918.97;5037991;28;47120;-46
2022/01/06 10:14:46;;;;;;;;;13.75;11.50;;;;;7.77;58.13;101918.66;5020597;28;45241;-48
2022/01/06 10:17:28;;;;;;;;;20.50;15.75;;;;;7.82;58.40;101913.91;5038134;28;45362;-47
2022/01/06 10:19:54;;;;;;;;;16.25;11.50;;;;;7.94;57.94;101919.25;5018800;28;45378;-45
2022/01/06 10:22:20;;;;;;;;;17.50;16.50;;;;;8.00;58.40;101915.34;5034954;28;45491;-46
2022/01/06 10:24:49;;;;;;;;;21.25;15.75;;;;;8.04;58.01;101911.53;5033231;28;45484;-47
2022/01/06 10:27:18;;;;;;;;;16.50;16.00;;;;;8.15;57.90;101922.28;5038153;28;45284;-45
2022/01/06 10:29:48;;;;;;;;;17.50;14.50;;;;;8.24;57.45;101910.22;5038417;28;45349;-45
2022/01/06 10:32:19;;;;;;;;;20.75;16.50;;;;;8.27;57.43;101914.47;5037864;28;45424;-48
2022/01/06 10:34:55;;;;;;;;;19.75;16.50;;;;;8.27;57.55;101910.03;5038029;28;45441;-47
2022/01/06 10:37:24;;;;;;;;;28.75;16.75;;;;;8.29;57.49;101916.06;5038258;28;45433;-47
2022/01/06 10:39:52;;;;;;;;;23.75;13.25;;;;;8.32;56.92;101920.31;5038278;28;45447;-45
2022/01/06 10:42:23;;;;;;;;;19.50;15.25;;;;;8.27;57.43;101909.19;5037333;28;46132;-48
2022/01/06 10:44:53;;;;;;;;;20.50;15.25;;;;;8.39;57.25;101922.50;5037988;28;45449;-49
2022/01/06 10:47:53;;;;;;;;;17.00;11.50;;;;;8.53;58.63;101907.44;5037997;28;45468;-50
2022/01/06 10:50:26;;;;;;;;;20.25;11.25;;;;;8.76;57.01;101906.69;4957245;28;45493;-46
2022/01/06 10:53:00;;;;;;;;;16.25;13.00;;;;;9.57;56.32;101895.63;4956582;28;46150;-45
2022/01/06 10:55:33;;;;;;;;;15.25;14.75;;;;;11.09;52.70;101895.56;4956270;28;45482;-45
2022/01/06 10:58:21;;;;;;;;;13.75;10.75;;;;;11.39;50.68;101884.25;4956703;28;45418;-45
2022/01/06 11:00:52;;;;;;;;;13.33;10.67;;;;;11.46;49.79;101888.13;4956962;28;45375;-46
2022/01/06 11:03:20;;;;;;;;;9.00;9.00;;;;;11.50;49.70;101886.03;4956396;28;46169;-45
2022/01/06 11:05:53;;;;;;;;;9.67;6.00;;;;;11.29;49.20;101877.13;4956414;28;45542;-46
2022/01/06 11:08:23;;;;;;;;;10.67;6.33;;;;;11.06;50.23;101873.66;4956586;28;45538;-44
2022/01/06 11:11:02;;;;;;;;;14.33;11.00;;;;;11.01;50.71;101873.19;4956441;28;45477;-45
2022/01/06 11:13:30;;;;;;;;;9.00;9.00;;;;;11.46;49.70;101868.59;4956323;28;46363;-45
2022/01/06 11:15:57;;;;;;;;;12.33;7.00;;;;;11.15;49.35;101865.75;4956456;28;45652;-44
2022/01/06 11:18:23;;;;;;;;;10.33;6.00;;;;;11.15;49.20;101862.25;4956354;28;45445;-44
2022/01/06 11:20:51;;;;;;;;;10.00;9.00;;;;;11.15;49.31;101855.13;4956203;28;45315;-45
2022/01/06 11:23:24;;;;;;;;;6.33;5.67;;;;;11.01;49.41;101863.38;4956028;28;46318;-46